createdAt,value
2017-04-09T09:26:48.075Z,1027.39
2017-04-09T09:31:48.047Z,1027.4
2017-04-09T09:36:48.019Z,1027.57
2017-04-09T09:41:47.987Z,1027.89
2017-04-09T09:46:47.960Z,1028.25
2017-04-09T09:51:47.940Z,1028.36
2017-04-09T09:56:47.907Z,1027.94
2017-04-09T10:01:47.875Z,1027.62
2017-04-09T10:06:47.850Z,1027.45
2017-04-09T10:11:47.814Z,1027.33
2017-04-09T10:16:47.779Z,1027.31
2017-04-09T10:21:47.783Z,1027.31
2017-04-09T10:26:47.753Z,1027.05
2017-04-09T10:31:47.718Z,1027.02
2017-04-09T10:36:47.705Z,1026.99
2017-04-09T10:41:47.705Z,1026.89
2017-04-09T10:46:47.709Z,1026.84
2017-04-09T10:51:47.714Z,1026.67
2017-04-09T10:56:47.716Z,1026.46
2017-04-09T11:01:47.709Z,1026.26
2017-04-09T11:06:47.709Z,1026.16
2017-04-09T11:11:47.714Z,1026.08
2017-04-09T11:16:47.709Z,1025.98
2017-04-09T11:21:47.709Z,1025.86
2017-04-09T11:26:47.704Z,1025.75
2017-04-09T11:31:47.732Z,1025.72
2017-04-09T11:36:47.702Z,1025.67
2017-04-09T11:41:47.703Z,1025.65
2017-04-09T11:46:47.700Z,1025.63
2017-04-09T11:51:47.696Z,1025.61
2017-04-09T11:56:47.694Z,1025.47
2017-04-09T12:01:47.692Z,1025.35
2017-04-09T12:06:47.686Z,1025.34
2017-04-09T12:11:47.684Z,1025.22
2017-04-09T12:16:47.685Z,1025.17
2017-04-09T12:21:47.682Z,1025.1
2017-04-09T12:26:47.678Z,1024.96
2017-04-09T12:31:47.682Z,1024.94
2017-04-09T12:36:47.676Z,1024.88
2017-04-09T12:41:47.678Z,1024.86
2017-04-09T12:46:47.671Z,1024.8
2017-04-09T12:51:47.669Z,1024.74
2017-04-09T12:56:47.637Z,1024.65
2017-04-09T13:01:47.585Z,1024.57
2017-04-09T13:06:47.550Z,1024.51
2017-04-09T13:11:47.517Z,1024.49
2017-04-09T13:16:47.475Z,1024.34
2017-04-09T13:21:47.434Z,1024.31
2017-04-09T13:26:47.396Z,1024.23
2017-04-09T13:31:47.360Z,1024.23
2017-04-09T13:36:47.333Z,1024.16
2017-04-09T13:41:47.290Z,1024.12
2017-04-09T13:46:47.249Z,1024.03
2017-04-09T13:51:47.216Z,1023.93
2017-04-09T13:56:47.258Z,1023.85
2017-04-09T14:01:47.217Z,1023.84
2017-04-09T14:06:47.233Z,1023.7
2017-04-09T14:11:47.219Z,1023.61
2017-04-09T14:16:47.225Z,1023.52
2017-04-09T14:21:47.218Z,1023.51
2017-04-09T14:26:47.215Z,1023.38
2017-04-09T14:31:47.201Z,1023.34
2017-04-09T14:36:47.197Z,1023.27
2017-04-09T14:41:47.190Z,1023.21
2017-04-09T14:46:47.195Z,1023.1
2017-04-09T14:51:47.183Z,1023.01
2017-04-09T14:56:47.180Z,1022.89
2017-04-09T15:01:47.171Z,1022.79
2017-04-09T15:06:47.169Z,1022.74
2017-04-09T15:11:47.186Z,1022.67
2017-04-09T15:16:47.174Z,1022.59
2017-04-09T15:21:47.154Z,1022.54
2017-04-09T15:26:47.153Z,1022.43
2017-04-09T15:31:47.142Z,1022.4
2017-04-09T15:36:47.140Z,1022.36
2017-04-09T15:41:47.133Z,1022.3
2017-04-09T15:46:47.132Z,1022.27
2017-04-09T15:51:47.123Z,1022.24
2017-04-09T15:56:47.121Z,1022.22
2017-04-09T16:01:47.117Z,1022.14
2017-04-09T16:06:47.146Z,1022.1
2017-04-09T16:11:47.115Z,1022.09
2017-04-09T16:16:47.106Z,1022.02
2017-04-09T16:21:47.104Z,1021.92
2017-04-09T16:26:47.100Z,1021.92
2017-04-09T16:31:47.096Z,1021.86
2017-04-09T16:36:47.090Z,1021.78
2017-04-09T16:41:47.085Z,1021.77
2017-04-09T16:46:47.088Z,1021.73
2017-04-09T16:51:47.082Z,1021.69
2017-04-09T16:56:47.068Z,1021.73
2017-04-09T17:01:47.066Z,1021.67
2017-04-09T17:06:47.056Z,1021.63
2017-04-09T17:11:47.056Z,1021.57
2017-04-09T17:16:47.050Z,1021.56
2017-04-09T17:21:47.042Z,1021.48
2017-04-09T17:26:47.032Z,1021.47
2017-04-09T17:31:47.078Z,1021.42
2017-04-09T17:36:47.018Z,1021.45
2017-04-09T17:41:47.061Z,1021.5
2017-04-09T17:46:46.990Z,1021.47
2017-04-09T17:51:46.988Z,1021.45
2017-04-09T17:56:46.960Z,1021.38
